createdAt,value
2023-04-08T00:00:41.453Z,77.07
2023-04-08T00:03:09.258Z,77.13
2023-04-08T00:05:36.732Z,76.55
2023-04-08T00:08:04.183Z,76.45
2023-04-08T00:10:31.866Z,77.37
2023-04-08T00:13:01.060Z,77.77
2023-04-08T00:15:28.380Z,77.88
2023-04-08T00:17:57.193Z,77.37
2023-04-08T00:20:25.498Z,78.05
2023-04-08T00:22:52.788Z,78.28
2023-04-08T00:25:21.949Z,77.70
2023-04-08T00:27:50.942Z,77.82
2023-04-08T00:30:18.327Z,77.99
2023-04-08T00:32:46.938Z,77.37
2023-04-08T00:35:14.545Z,76.25
2023-04-08T00:37:41.971Z,76.71
2023-04-08T00:40:10.042Z,77.33
2023-04-08T00:42:37.435Z,77.61
2023-04-08T00:45:05.515Z,78.67
2023-04-08T00:47:33.264Z,78.52
2023-04-08T00:50:00.626Z,79.03
2023-04-08T00:52:28.112Z,79.18
2023-04-08T00:54:56.430Z,79.90
2023-04-08T00:57:23.809Z,79.50
2023-04-08T00:59:51.771Z,79.72
2023-04-08T01:02:27.917Z,80.23
2023-04-08T01:05:04.377Z,79.87
2023-04-08T01:07:35.912Z,79.69
2023-04-08T01:10:08.090Z,79.64
2023-04-08T01:12:42.092Z,79.66
2023-04-08T01:15:12.717Z,79.24
2023-04-08T01:17:42.361Z,80.29
2023-04-08T01:20:13.586Z,81.16
2023-04-08T01:22:58.466Z,81.26
2023-04-08T01:25:34.418Z,80.95
2023-04-08T01:28:06.120Z,81.49
2023-04-08T01:30:34.918Z,81.26
2023-04-08T01:33:04.307Z,80.83
2023-04-08T01:35:32.494Z,80.06
2023-04-08T01:38:00.768Z,79.97
2023-04-08T01:40:28.584Z,80.10
2023-04-08T01:42:57.783Z,79.81
2023-04-08T01:45:26.239Z,79.14
2023-04-08T01:47:54.405Z,79.59
2023-04-08T01:50:23.002Z,79.47
2023-04-08T01:52:53.823Z,79.21
2023-04-08T01:55:22.221Z,79.39
2023-04-08T01:57:52.366Z,79.42
2023-04-08T02:00:24.191Z,80.33
2023-04-08T02:02:53.308Z,80.32
2023-04-08T02:05:20.986Z,80.08
2023-04-08T02:07:49.320Z,81.04
2023-04-08T02:10:17.027Z,81.02
2023-04-08T02:12:46.089Z,80.65
2023-04-08T02:15:14.170Z,80.69
2023-04-08T02:17:56.080Z,81.10
2023-04-08T02:20:43.482Z,80.43
2023-04-08T02:23:21.552Z,79.54
2023-04-08T02:25:50.685Z,78.97
2023-04-08T02:28:19.941Z,80.57
2023-04-08T02:30:49.362Z,81.62
2023-04-08T02:33:21.097Z,81.16
2023-04-08T02:35:50.762Z,81.02
2023-04-08T02:38:18.504Z,81.83
2023-04-08T02:40:45.900Z,81.98
2023-04-08T02:43:13.164Z,81.81
2023-04-08T02:45:47.493Z,82.05
2023-04-08T02:48:17.574Z,82.17
2023-04-08T02:50:49.504Z,81.25
2023-04-08T02:53:16.853Z,80.80
2023-04-08T02:55:44.245Z,80.93
2023-04-08T02:58:11.843Z,81.51
2023-04-08T03:00:39.915Z,82.18
2023-04-08T03:03:07.551Z,81.28
2023-04-08T03:05:35.471Z,83.49
2023-04-08T03:08:02.882Z,81.96
2023-04-08T03:10:30.543Z,82.93
2023-04-08T03:12:58.214Z,82.34
2023-04-08T03:15:25.925Z,82.26
2023-04-08T03:17:53.264Z,82.87
2023-04-08T03:20:21.055Z,83.09
2023-04-08T03:22:48.684Z,82.61
2023-04-08T03:27:36.376Z,82.28
2023-04-08T03:30:04.366Z,82.28
2023-04-08T03:32:32.883Z,82.66
2023-04-08T03:35:15.378Z,83.09
2023-04-08T03:37:47.008Z,82.51
2023-04-08T03:40:14.645Z,82.51
2023-04-08T03:42:43.224Z,81.91
2023-04-08T03:45:11.194Z,81.45
2023-04-08T03:47:40.070Z,81.46
2023-04-08T03:50:08.364Z,81.64
2023-04-08T03:52:36.378Z,81.50
2023-04-08T03:55:03.975Z,81.41
2023-04-08T03:57:31.353Z,81.67
2023-04-08T03:59:59.396Z,81.57
2023-04-08T04:02:26.981Z,80.69
2023-04-08T04:04:55.288Z,80.82
2023-04-08T04:07:23.173Z,81.55
2023-04-08T04:09:54.319Z,81.98
2023-04-08T04:12:22.172Z,81.00
2023-04-08T04:14:49.595Z,80.52
2023-04-08T04:17:17.006Z,81.23
2023-04-08T04:19:44.856Z,80.84
2023-04-08T04:22:12.424Z,81.16
2023-04-08T04:24:40.075Z,81.03
2023-04-08T04:27:08.160Z,80.49
2023-04-08T04:29:36.384Z,81.10
2023-04-08T04:32:04.232Z,80.82
2023-04-08T04:34:32.802Z,80.32
2023-04-08T04:37:00.086Z,80.68
2023-04-08T04:39:27.583Z,80.70
2023-04-08T04:41:55.545Z,80.75
2023-04-08T04:44:24.276Z,80.54
2023-04-08T04:46:51.870Z,80.48
2023-04-08T04:49:19.996Z,80.54
2023-04-08T04:51:48.330Z,80.53
2023-04-08T04:54:18.076Z,81.63
2023-04-08T04:56:46.132Z,82.20
2023-04-08T04:59:13.679Z,82.27
2023-04-08T05:01:41.361Z,82.17
2023-04-08T05:04:09.064Z,82.04
2023-04-08T05:06:36.948Z,82.19
2023-04-08T05:09:07.741Z,83.77
2023-04-08T05:11:36.011Z,85.17
2023-04-08T05:14:03.188Z,84.90
2023-04-08T05:16:30.456Z,84.97
2023-04-08T05:18:58.074Z,84.65
2023-04-08T05:21:26.336Z,85.14
2023-04-08T05:23:54.494Z,84.44
2023-04-08T05:26:22.619Z,84.09
2023-04-08T05:28:51.581Z,83.87
2023-04-08T05:31:19.898Z,83.44
2023-04-08T05:33:48.659Z,83.67
2023-04-08T05:36:16.206Z,82.60
2023-04-08T05:38:44.472Z,82.86
2023-04-08T05:41:12.190Z,82.26
2023-04-08T05:43:40.562Z,81.52
2023-04-08T05:46:09.861Z,81.51
2023-04-08T05:48:37.761Z,80.78
2023-04-08T05:51:05.835Z,80.11
2023-04-08T05:53:33.176Z,80.11
2023-04-08T05:56:00.898Z,80.17
2023-04-08T05:58:28.295Z,79.33
2023-04-08T06:00:55.832Z,78.49
2023-04-08T06:03:24.458Z,77.78
2023-04-08T06:05:51.875Z,77.67
2023-04-08T06:08:19.273Z,78.00
2023-04-08T06:10:51.299Z,78.51
2023-04-08T06:13:21.487Z,77.52
2023-04-08T06:15:50.049Z,77.80
2023-04-08T06:18:17.537Z,77.64
2023-04-08T06:20:44.890Z,77.00
2023-04-08T06:23:12.877Z,76.72
2023-04-08T06:25:40.584Z,76.63
2023-04-08T06:28:08.173Z,77.16
2023-04-08T06:30:36.021Z,77.14
2023-04-08T06:33:03.516Z,77.71
2023-04-08T06:35:32.641Z,77.15
2023-04-08T06:38:00.441Z,76.02
2023-04-08T06:40:27.816Z,76.15
2023-04-08T06:42:55.882Z,76.02
2023-04-08T06:45:28.885Z,76.46
2023-04-08T06:47:56.994Z,75.93
2023-04-08T06:50:24.458Z,76.79
2023-04-08T06:52:52.134Z,77.61
2023-04-08T06:55:19.940Z,77.64
2023-04-08T06:57:47.506Z,77.09
2023-04-08T07:00:15.696Z,76.97
2023-04-08T07:02:43.145Z,77.36
2023-04-08T07:05:10.899Z,77.20
2023-04-08T07:07:38.559Z,76.61
2023-04-08T07:10:07.268Z,76.61
2023-04-08T07:12:35.494Z,77.74
2023-04-08T07:15:04.128Z,77.12
2023-04-08T07:17:31.470Z,76.47
2023-04-08T07:19:58.780Z,75.95
2023-04-08T07:22:26.946Z,75.92
2023-04-08T07:24:54.327Z,75.44
2023-04-08T07:27:21.817Z,76.07
2023-04-08T07:29:54.839Z,75.85
2023-04-08T07:32:22.474Z,75.94
2023-04-08T07:34:50.225Z,74.91
2023-04-08T07:37:18.372Z,74.83
2023-04-08T07:39:45.920Z,74.12
2023-04-08T07:42:13.243Z,73.98
2023-04-08T07:44:41.051Z,74.32
2023-04-08T07:47:09.969Z,74.74
2023-04-08T07:49:37.724Z,74.69
2023-04-08T07:52:06.559Z,74.65
2023-04-08T07:54:37.167Z,73.82
2023-04-08T07:57:04.847Z,73.26
2023-04-08T07:59:32.736Z,72.70
2023-04-08T08:02:00.253Z,72.00
2023-04-08T08:04:28.077Z,72.84
2023-04-08T08:06:55.761Z,71.81
2023-04-08T08:09:23.436Z,70.49
2023-04-08T08:11:51.217Z,71.59
2023-04-08T08:14:18.890Z,70.63
2023-04-08T08:16:46.260Z,71.54
2023-04-08T08:19:14.771Z,70.79
2023-04-08T08:21:42.172Z,70.19
2023-04-08T08:24:12.539Z,69.79
2023-04-08T08:26:40.665Z,68.64
2023-04-08T08:29:09.075Z,68.38
2023-04-08T08:31:36.917Z,68.64
2023-04-08T08:34:04.704Z,66.49
2023-04-08T08:36:33.479Z,65.73
2023-04-08T08:39:02.624Z,65.04
2023-04-08T08:41:36.726Z,65.05
2023-04-08T08:44:06.878Z,67.03
2023-04-08T08:46:35.175Z,66.33
2023-04-08T08:49:02.820Z,65.43
2023-04-08T08:51:30.556Z,64.61
2023-04-08T08:53:58.276Z,64.27
2023-04-08T08:56:25.949Z,65.34
2023-04-08T08:58:53.332Z,65.18
2023-04-08T09:01:31.493Z,66.01
2023-04-08T09:04:15.963Z,65.40
2023-04-08T09:06:45.468Z,66.09
2023-04-08T09:09:13.270Z,65.72
2023-04-08T09:11:42.651Z,63.53
2023-04-08T09:14:24.628Z,63.21
2023-04-08T09:16:53.231Z,63.49
2023-04-08T09:19:21.289Z,63.55
2023-04-08T09:22:08.939Z,61.12
2023-04-08T09:24:37.697Z,61.90
2023-04-08T09:27:06.075Z,62.79
2023-04-08T09:29:37.447Z,61.27
2023-04-08T09:32:07.521Z,62.25
2023-04-08T09:34:35.029Z,60.90
2023-04-08T09:37:02.458Z,62.70
2023-04-08T09:39:30.988Z,61.15
2023-04-08T09:42:01.598Z,60.35
2023-04-08T09:44:29.491Z,60.15
2023-04-08T09:47:08.670Z,60.22
2023-04-08T09:49:45.003Z,61.20
2023-04-08T09:52:22.760Z,60.67
2023-04-08T09:54:58.140Z,57.83
2023-04-08T09:57:41.900Z,58.32
2023-04-08T10:00:15.219Z,57.85
2023-04-08T10:03:07.632Z,57.81
2023-04-08T10:05:40.948Z,57.41
2023-04-08T10:08:08.954Z,55.79
2023-04-08T10:10:38.775Z,53.24
2023-04-08T10:13:08.058Z,54.10
2023-04-08T10:15:37.702Z,52.77
2023-04-08T10:18:06.727Z,54.39
2023-04-08T10:20:34.433Z,54.13
2023-04-08T10:23:03.791Z,49.94
2023-04-08T10:25:38.395Z,50.95
2023-04-08T10:28:12.236Z,49.83
2023-04-08T10:30:52.280Z,47.31
2023-04-08T10:33:41.093Z,47.51
2023-04-08T10:36:15.540Z,47.21
2023-04-08T10:38:43.637Z,47.74
2023-04-08T10:41:12.249Z,48.85
2023-04-08T10:43:39.600Z,49.11
2023-04-08T10:46:11.974Z,49.99
2023-04-08T10:48:39.740Z,50.56
2023-04-08T10:51:07.731Z,52.74
2023-04-08T10:53:38.557Z,53.54
2023-04-08T10:56:07.473Z,53.91
2023-04-08T10:58:36.912Z,50.38
2023-04-08T11:01:07.055Z,51.97
2023-04-08T11:03:36.343Z,50.71
2023-04-08T11:06:04.319Z,51.19
2023-04-08T11:08:33.613Z,53.53
2023-04-08T11:11:02.305Z,55.10
2023-04-08T11:13:30.920Z,56.75
2023-04-08T11:16:00.328Z,56.20
2023-04-08T11:18:28.953Z,56.63
2023-04-08T11:20:57.602Z,55.49
2023-04-08T11:23:26.641Z,53.97
2023-04-08T11:25:54.925Z,51.42
2023-04-08T11:28:22.873Z,50.42
2023-04-08T11:30:50.640Z,46.78
2023-04-08T11:33:18.865Z,51.67
2023-04-08T11:35:46.274Z,53.46
2023-04-08T11:38:13.596Z,53.97
2023-04-08T11:40:52.419Z,53.12
2023-04-08T11:43:20.183Z,51.57
2023-04-08T11:45:48.102Z,52.39
2023-04-08T11:48:16.825Z,53.97
2023-04-08T11:50:45.777Z,54.01
2023-04-08T11:53:20.840Z,54.36
2023-04-08T11:55:49.281Z,55.88
2023-04-08T11:58:17.238Z,56.39
2023-04-08T12:00:45.969Z,57.64
2023-04-08T12:03:14.288Z,56.74
2023-04-08T12:05:42.768Z,57.52
2023-04-08T12:08:10.273Z,56.81
2023-04-08T12:10:38.168Z,55.38
2023-04-08T12:13:05.512Z,54.02
2023-04-08T12:15:33.127Z,52.97
2023-04-08T12:18:00.835Z,52.11
2023-04-08T12:20:28.223Z,53.26
2023-04-08T12:22:55.847Z,54.26
2023-04-08T12:25:23.690Z,53.26
2023-04-08T12:27:50.986Z,53.05
2023-04-08T12:30:18.315Z,53.67
2023-04-08T12:32:47.803Z,52.99
2023-04-08T12:35:15.356Z,54.26
2023-04-08T12:37:42.651Z,53.49
2023-04-08T12:40:11.231Z,55.43
2023-04-08T12:42:38.479Z,52.89
2023-04-08T12:45:06.789Z,51.56
2023-04-08T12:47:34.555Z,52.61
2023-04-08T12:50:02.349Z,50.53
2023-04-08T12:52:29.723Z,50.64
2023-04-08T12:54:57.626Z,49.61
2023-04-08T12:57:24.909Z,50.88
2023-04-08T12:59:52.181Z,50.80
2023-04-08T13:02:19.922Z,51.94
2023-04-08T13:04:47.566Z,53.79
2023-04-08T13:07:14.884Z,56.16
2023-04-08T13:09:43.728Z,56.97
2023-04-08T13:12:12.420Z,56.22
2023-04-08T13:14:39.777Z,57.34
2023-04-08T13:17:07.652Z,57.93
2023-04-08T13:19:35.782Z,58.53
2023-04-08T13:22:03.170Z,58.79
2023-04-08T13:24:30.851Z,59.17
2023-04-08T13:26:58.567Z,57.39
2023-04-08T13:29:26.101Z,57.83
2023-04-08T13:31:53.819Z,57.34
2023-04-08T13:34:21.392Z,56.91
2023-04-08T13:36:48.782Z,57.27
2023-04-08T13:39:16.410Z,57.66
2023-04-08T13:41:43.847Z,57.55
2023-04-08T13:44:11.641Z,57.26
2023-04-08T13:46:39.845Z,56.79
2023-04-08T13:49:07.261Z,57.89
2023-04-08T13:51:34.538Z,57.33
2023-04-08T13:54:02.709Z,56.35
2023-04-08T13:56:30.056Z,57.35
2023-04-08T13:58:57.876Z,57.19
2023-04-08T14:01:26.013Z,57.06
2023-04-08T14:03:53.810Z,56.58
2023-04-08T14:06:21.166Z,57.16
2023-04-08T14:08:48.666Z,57.07
2023-04-08T14:11:16.556Z,60.54
2023-04-08T14:13:43.884Z,65.16
2023-04-08T14:16:11.330Z,67.46
2023-04-08T14:18:39.605Z,67.41
2023-04-08T14:21:07.685Z,73.37
2023-04-08T14:23:35.030Z,78.36
2023-04-08T14:26:03.168Z,73.09
2023-04-08T14:28:30.550Z,69.59
2023-04-08T14:30:58.100Z,71.41
2023-04-08T14:33:25.859Z,74.04
2023-04-08T14:35:53.494Z,73.53
2023-04-08T14:38:21.603Z,73.50
2023-04-08T14:40:49.359Z,76.24
2023-04-08T14:43:16.700Z,68.86
2023-04-08T14:45:45.180Z,67.35
2023-04-08T14:48:12.936Z,66.18
2023-04-08T14:50:40.461Z,67.06
2023-04-08T14:53:07.807Z,65.13
2023-04-08T14:55:35.623Z,57.82
2023-04-08T14:58:03.291Z,59.40
2023-04-08T15:00:30.717Z,58.08
2023-04-08T15:02:59.149Z,57.37
2023-04-08T15:05:26.761Z,54.55
2023-04-08T15:07:54.516Z,48.82
2023-04-08T15:10:22.180Z,52.18
2023-04-08T15:12:49.564Z,54.03
2023-04-08T15:15:17.030Z,56.54
2023-04-08T15:17:44.689Z,58.63
2023-04-08T15:20:12.614Z,59.86
2023-04-08T15:22:40.233Z,60.07
2023-04-08T15:25:08.323Z,61.17
2023-04-08T15:27:36.818Z,61.13
2023-04-08T15:30:07.908Z,60.81
2023-04-08T15:32:35.786Z,61.39
2023-04-08T15:35:03.426Z,61.23
2023-04-08T15:37:31.150Z,62.15
2023-04-08T15:39:59.212Z,62.31
2023-04-08T15:42:27.297Z,62.88
2023-04-08T15:44:54.670Z,62.90
2023-04-08T15:47:22.822Z,63.43
2023-04-08T15:49:53.070Z,63.54
2023-04-08T15:52:20.424Z,63.54
2023-04-08T15:54:48.037Z,64.13
2023-04-08T15:57:16.339Z,65.04
2023-04-08T15:59:43.774Z,65.24
2023-04-08T16:02:12.030Z,64.04
2023-04-08T16:04:39.907Z,65.04
2023-04-08T16:07:07.771Z,65.14
2023-04-08T16:09:35.070Z,64.93
2023-04-08T16:12:03.081Z,65.46
2023-04-08T16:14:30.442Z,65.92
2023-04-08T16:16:57.840Z,65.80
2023-04-08T16:19:26.368Z,64.84
2023-04-08T16:21:53.747Z,65.50
2023-04-08T16:24:21.733Z,65.88
2023-04-08T16:26:49.451Z,66.19
2023-04-08T16:29:16.857Z,66.53
2023-04-08T16:31:44.352Z,66.41
2023-04-08T16:34:12.085Z,66.46
2023-04-08T16:36:39.709Z,66.70
2023-04-08T16:39:07.059Z,66.54
2023-04-08T16:41:34.718Z,65.69
2023-04-08T16:44:01.971Z,65.47
2023-04-08T16:46:29.328Z,66.50
2023-04-08T16:48:57.014Z,65.64
2023-04-08T16:51:24.305Z,66.01
2023-04-08T16:53:51.970Z,66.12
2023-04-08T16:56:19.937Z,66.60
2023-04-08T16:58:47.392Z,67.12
2023-04-08T17:01:14.876Z,68.67
2023-04-08T17:03:42.888Z,68.63
2023-04-08T17:06:14.484Z,70.50
2023-04-08T17:08:43.542Z,71.07
2023-04-08T17:11:13.316Z,71.18
2023-04-08T17:13:42.604Z,71.17
2023-04-08T17:16:14.695Z,70.87
2023-04-08T17:18:43.276Z,70.88
2023-04-08T17:21:12.144Z,72.55
2023-04-08T17:23:40.064Z,73.62
2023-04-08T17:26:09.870Z,73.19
2023-04-08T17:28:37.309Z,73.70
2023-04-08T17:31:06.949Z,74.86
2023-04-08T17:33:41.560Z,74.08
2023-04-08T17:36:08.837Z,74.67
2023-04-08T17:38:40.109Z,74.66
2023-04-08T17:41:08.433Z,74.31
2023-04-08T17:43:36.218Z,73.88
2023-04-08T17:46:04.119Z,73.81
2023-04-08T17:48:31.602Z,73.24
2023-04-08T17:51:07.150Z,74.03
2023-04-08T17:53:35.528Z,73.30
2023-04-08T17:56:02.894Z,73.93
2023-04-08T17:58:30.201Z,73.83
2023-04-08T18:00:58.020Z,74.58
2023-04-08T18:03:25.956Z,74.54
2023-04-08T18:05:55.407Z,76.00
2023-04-08T18:08:23.433Z,75.77
2023-04-08T18:10:51.243Z,75.81
2023-04-08T18:13:18.907Z,75.07
2023-04-08T18:15:46.580Z,76.77
2023-04-08T18:18:19.644Z,77.62
2023-04-08T18:20:48.978Z,77.40
2023-04-08T18:23:17.338Z,76.60
2023-04-08T18:25:50.440Z,77.44
2023-04-08T18:28:18.746Z,78.76
2023-04-08T18:30:51.672Z,79.87
2023-04-08T18:33:20.449Z,80.63
2023-04-08T18:35:47.808Z,81.40
2023-04-08T18:38:15.331Z,82.22
2023-04-08T18:40:45.805Z,83.70
2023-04-08T18:43:13.941Z,83.97
2023-04-08T18:45:41.718Z,84.73
2023-04-08T18:48:09.460Z,85.84
2023-04-08T18:50:36.767Z,86.12
2023-04-08T18:53:04.143Z,85.64
2023-04-08T18:55:36.129Z,85.22
2023-04-08T18:58:03.643Z,87.08
2023-04-08T19:00:31.888Z,90.63
2023-04-08T19:02:59.606Z,92.36
2023-04-08T19:05:27.053Z,92.74
2023-04-08T19:07:54.509Z,92.93
2023-04-08T19:10:22.640Z,92.83
2023-04-08T19:12:50.135Z,93.19
2023-04-08T19:15:17.706Z,92.93
2023-04-08T19:17:46.241Z,93.55
2023-04-08T19:20:13.784Z,92.59
2023-04-08T19:22:41.348Z,92.53
2023-04-08T19:25:09.223Z,91.95
2023-04-08T19:27:36.772Z,91.45
2023-04-08T19:30:04.468Z,92.68
2023-04-08T19:32:35.126Z,93.45
2023-04-08T19:35:02.583Z,94.31
2023-04-08T19:37:30.028Z,95.81
2023-04-08T19:39:57.739Z,96.40
2023-04-08T19:42:25.447Z,96.11
2023-04-08T19:44:53.248Z,96.61
2023-04-08T19:47:20.947Z,96.10
2023-04-08T19:49:48.390Z,95.64
2023-04-08T19:52:15.744Z,93.04
2023-04-08T19:54:43.810Z,94.85
2023-04-08T19:57:12.454Z,94.07
2023-04-08T19:59:39.768Z,96.00
2023-04-08T20:02:07.943Z,96.97
2023-04-08T20:04:35.843Z,96.73
2023-04-08T20:07:03.996Z,96.34
2023-04-08T20:09:32.800Z,95.96
2023-04-08T20:12:06.548Z,94.22
2023-04-08T20:14:40.644Z,93.81
2023-04-08T20:17:08.421Z,92.81
2023-04-08T20:19:35.823Z,93.45
2023-04-08T20:22:03.462Z,95.05
2023-04-08T20:24:31.802Z,95.46
2023-04-08T20:27:00.226Z,94.59
2023-04-08T20:29:28.688Z,94.56
2023-04-08T20:31:56.436Z,94.34
2023-04-08T20:34:23.921Z,94.23
2023-04-08T20:36:52.275Z,93.67
2023-04-08T20:39:20.063Z,93.30
2023-04-08T20:41:47.460Z,93.21
2023-04-08T20:44:14.867Z,93.11
2023-04-08T20:46:43.057Z,93.64
2023-04-08T20:49:10.611Z,95.46
2023-04-08T20:51:37.952Z,95.04
2023-04-08T20:54:05.727Z,94.87
2023-04-08T20:56:33.055Z,94.98
2023-04-08T20:59:01.681Z,94.75
2023-04-08T21:01:29.680Z,94.38
2023-04-08T21:03:57.350Z,95.33
2023-04-08T21:06:24.718Z,95.26
2023-04-08T21:08:52.647Z,97.53
2023-04-08T21:11:20.090Z,98.16
2023-04-08T21:13:49.065Z,100.00
2023-04-08T21:16:17.159Z,100.00
2023-04-08T21:18:44.583Z,98.96
2023-04-08T21:21:12.008Z,98.18
2023-04-08T21:23:39.658Z,98.27
2023-04-08T21:26:13.746Z,98.49
2023-04-08T21:28:41.596Z,98.68
2023-04-08T21:31:13.614Z,98.91
2023-04-08T21:33:41.313Z,98.96
2023-04-08T21:36:08.869Z,99.94
2023-04-08T21:38:36.444Z,99.96
2023-04-08T21:41:04.094Z,99.57
2023-04-08T21:43:31.835Z,99.69
2023-04-08T21:45:59.183Z,99.29
2023-04-08T21:48:26.815Z,96.75
2023-04-08T21:50:54.203Z,95.96
2023-04-08T21:53:22.519Z,95.89
2023-04-08T21:55:50.168Z,95.43
2023-04-08T21:58:18.195Z,95.77
2023-04-08T22:00:46.274Z,97.74
2023-04-08T22:03:14.304Z,97.71
2023-04-08T22:05:42.121Z,97.56
2023-04-08T22:08:09.445Z,97.57
2023-04-08T22:10:37.666Z,96.73
2023-04-08T22:13:04.961Z,95.82
2023-04-08T22:15:32.301Z,96.05
2023-04-08T22:18:00.426Z,95.57
2023-04-08T22:20:28.178Z,95.47
2023-04-08T22:22:55.530Z,96.33
2023-04-08T22:25:23.298Z,96.54
2023-04-08T22:27:50.694Z,95.68
2023-04-08T22:30:18.104Z,96.41
2023-04-08T22:32:46.005Z,96.99
2023-04-08T22:35:13.542Z,97.10
2023-04-08T22:37:41.803Z,96.97
2023-04-08T22:40:09.786Z,96.40
2023-04-08T22:42:37.115Z,96.86
2023-04-08T22:45:06.040Z,98.64
2023-04-08T22:47:33.567Z,99.53
2023-04-08T22:50:01.197Z,99.82
2023-04-08T22:52:28.601Z,99.73
2023-04-08T22:54:56.298Z,98.94
2023-04-08T22:57:23.746Z,98.86
2023-04-08T22:59:51.346Z,97.81
2023-04-08T23:02:19.164Z,97.98
2023-04-08T23:04:46.526Z,97.93
2023-04-08T23:07:14.081Z,97.39
2023-04-08T23:09:41.732Z,97.44
2023-04-08T23:12:09.067Z,96.94
2023-04-08T23:14:36.523Z,95.73
2023-04-08T23:17:05.573Z,96.28
2023-04-08T23:19:32.871Z,95.70
2023-04-08T23:22:00.176Z,95.34
2023-04-08T23:24:27.855Z,95.99
2023-04-08T23:26:55.087Z,96.50
2023-04-08T23:29:22.355Z,96.23
2023-04-08T23:31:49.966Z,96.42
2023-04-08T23:34:17.237Z,97.67
2023-04-08T23:36:44.641Z,98.30
2023-04-08T23:39:12.873Z,97.95
2023-04-08T23:41:40.419Z,96.85
2023-04-08T23:44:07.799Z,97.75
2023-04-08T23:46:35.394Z,97.65
2023-04-08T23:49:02.662Z,97.69
2023-04-08T23:51:30.021Z,96.59
2023-04-08T23:53:57.693Z,97.70
2023-04-08T23:56:24.874Z,97.64
2023-04-08T23:58:52.314Z,97.34
